createdAt,value
2022-12-27T00:01:30.914Z,102154.06
2022-12-27T00:03:57.339Z,102166.06
2022-12-27T00:06:25.322Z,102166.94
2022-12-27T00:08:52.724Z,102171.06
2022-12-27T00:11:22.043Z,102158.91
2022-12-27T00:13:49.173Z,102172.66
2022-12-27T00:16:18.000Z,102172.53
2022-12-27T00:18:46.419Z,102167.25
2022-12-27T00:21:14.088Z,102172.22
2022-12-27T00:23:44.350Z,102170.34
2022-12-27T00:26:15.672Z,102180.59
2022-12-27T00:28:42.715Z,102189.22
2022-12-27T00:31:09.810Z,102177.06
2022-12-27T00:33:39.194Z,102180.44
2022-12-27T00:36:07.916Z,102181.22
2022-12-27T00:38:35.484Z,102179.63
2022-12-27T00:41:02.495Z,102183.06
2022-12-27T00:43:29.130Z,102174.50
2022-12-27T00:45:55.561Z,102181.31
2022-12-27T00:48:22.092Z,102181.38
2022-12-27T00:50:49.076Z,102166.66
2022-12-27T00:53:18.153Z,102167.41
2022-12-27T00:55:45.393Z,102171.13
2022-12-27T00:58:11.898Z,102179.53
2022-12-27T01:00:38.600Z,102186.34
2022-12-27T01:03:05.310Z,102189.66
2022-12-27T01:05:32.004Z,102195.50
2022-12-27T01:07:58.481Z,102192.00
2022-12-27T01:10:24.927Z,102196.25
2022-12-27T01:12:51.424Z,102190.16
2022-12-27T01:15:17.952Z,102191.84
2022-12-27T01:17:44.439Z,102195.19
2022-12-27T01:20:10.895Z,102188.31
2022-12-27T01:22:37.369Z,102191.63
2022-12-27T01:25:04.175Z,102201.00
2022-12-27T01:27:30.667Z,102190.53
2022-12-27T01:29:57.127Z,102203.38
2022-12-27T01:32:23.578Z,102205.91
2022-12-27T01:34:50.784Z,102214.47
2022-12-27T01:37:17.466Z,102206.78
2022-12-27T01:39:43.868Z,102215.25
2022-12-27T01:42:18.596Z,102219.41
2022-12-27T01:44:58.248Z,102221.97
2022-12-27T01:47:30.892Z,102221.97
2022-12-27T01:50:16.089Z,102221.09
2022-12-27T01:53:09.993Z,102220.22
2022-12-27T01:55:45.693Z,102230.47
2022-12-27T01:58:21.974Z,102231.13
2022-12-27T02:00:49.461Z,102237.22
2022-12-27T02:03:24.125Z,102238.81
2022-12-27T02:05:51.169Z,102242.16
2022-12-27T02:08:43.763Z,102237.03
2022-12-27T02:11:10.678Z,102243.06
2022-12-27T02:13:42.294Z,102242.75
2022-12-27T02:16:14.715Z,102238.50
2022-12-27T02:18:41.929Z,102250.66
2022-12-27T02:21:26.255Z,102252.41
2022-12-27T02:24:04.639Z,102243.06
2022-12-27T02:26:44.723Z,102232.50
2022-12-27T02:29:45.159Z,102253.31
2022-12-27T02:32:16.394Z,102248.97
2022-12-27T02:34:57.214Z,102255.78
2022-12-27T02:37:27.242Z,102261.06
2022-12-27T02:39:55.475Z,102255.78
2022-12-27T02:42:22.395Z,102258.34
2022-12-27T02:44:49.189Z,102267.88
2022-12-27T02:47:20.078Z,102258.34
2022-12-27T02:49:46.540Z,102260.03
2022-12-27T02:52:47.552Z,102263.47
2022-12-27T02:55:47.470Z,102271.09
2022-12-27T02:58:21.153Z,102267.66
2022-12-27T03:01:12.239Z,102255.63
2022-12-27T03:04:04.750Z,102255.63
2022-12-27T03:06:59.363Z,102258.91
2022-12-27T03:09:47.720Z,102266.53
2022-12-27T03:12:29.356Z,102263.00
2022-12-27T03:15:02.046Z,102268.84
2022-12-27T03:17:43.627Z,102262.47
2022-12-27T03:20:15.861Z,102269.41
2022-12-27T03:22:44.432Z,102273.59
2022-12-27T03:25:13.058Z,102271.81
2022-12-27T03:27:42.107Z,102271.81
2022-12-27T03:30:09.348Z,102274.47
2022-12-27T03:32:46.168Z,102262.50
2022-12-27T03:35:17.257Z,102255.47
2022-12-27T03:37:50.162Z,102268.59
2022-12-27T03:40:38.283Z,102260.13
2022-12-27T03:43:16.242Z,102254.13
2022-12-27T03:45:57.803Z,102253.41
2022-12-27T03:48:28.659Z,102256.78
2022-12-27T03:50:59.848Z,102239.31
2022-12-27T03:53:33.754Z,102250.53
2022-12-27T03:56:00.526Z,102251.47
2022-12-27T03:58:27.006Z,102250.69
2022-12-27T04:00:53.585Z,102255.16
2022-12-27T04:03:20.111Z,102250.03
2022-12-27T04:05:46.565Z,102250.84
2022-12-27T04:08:13.022Z,102234.66
2022-12-27T04:10:39.463Z,102240.59
2022-12-27T04:13:05.901Z,102241.41
2022-12-27T04:15:32.376Z,102247.31
2022-12-27T04:17:58.856Z,102242.19
2022-12-27T04:20:25.473Z,102234.50
2022-12-27T04:22:51.901Z,102238.75
2022-12-27T04:25:18.369Z,102244.75
2022-12-27T04:27:44.795Z,102241.22
2022-12-27T04:30:11.530Z,102249.22
2022-12-27T04:32:37.943Z,102238.19
2022-12-27T04:35:04.858Z,102240.91
2022-12-27T04:37:31.323Z,102238.50
2022-12-27T04:39:57.835Z,102241.06
2022-12-27T04:42:24.297Z,102244.66
2022-12-27T04:44:50.763Z,102254.19
2022-12-27T04:47:20.612Z,102248.19
2022-12-27T04:49:47.081Z,102253.47
2022-12-27T04:52:16.587Z,102244.72
2022-12-27T04:54:43.147Z,102247.59
2022-12-27T04:57:09.564Z,102243.38
2022-12-27T04:59:36.011Z,102243.28
2022-12-27T05:02:02.532Z,102249.38
2022-12-27T05:04:30.816Z,102246.91
2022-12-27T05:06:58.828Z,102242.66
2022-12-27T05:09:25.328Z,102240.00
2022-12-27T05:11:51.764Z,102238.25
2022-12-27T05:14:18.228Z,102215.88
2022-12-27T05:16:45.051Z,102211.50
2022-12-27T05:19:13.336Z,102208.88
2022-12-27T05:21:42.318Z,102201.84
2022-12-27T05:24:08.944Z,102207.63
2022-12-27T05:26:36.331Z,102207.44
2022-12-27T05:29:03.097Z,102210.44
2022-12-27T05:31:30.977Z,102211.16
2022-12-27T05:33:58.071Z,102219.50
2022-12-27T05:36:24.902Z,102220.94
2022-12-27T05:38:51.788Z,102216.44
2022-12-27T05:41:18.311Z,102217.97
2022-12-27T05:43:45.231Z,102223.00
2022-12-27T05:46:14.560Z,102221.97
2022-12-27T05:48:41.485Z,102221.81
2022-12-27T05:51:15.179Z,102216.31
2022-12-27T05:53:41.699Z,102229.25
2022-12-27T05:56:11.285Z,102220.59
2022-12-27T05:58:37.746Z,102211.97
2022-12-27T06:01:08.538Z,102205.88
2022-12-27T06:03:35.730Z,102210.03
2022-12-27T06:06:03.612Z,102211.66
2022-12-27T06:08:30.885Z,102208.69
2022-12-27T06:11:17.909Z,102212.91
2022-12-27T06:13:49.841Z,102222.50
2022-12-27T06:16:16.607Z,102220.78
2022-12-27T06:18:43.115Z,102226.84
2022-12-27T06:21:13.028Z,102212.78
2022-12-27T06:23:41.882Z,102221.56
2022-12-27T06:26:14.841Z,102212.78
2022-12-27T06:28:41.554Z,102229.25
2022-12-27T06:31:09.817Z,102229.16
2022-12-27T06:33:36.440Z,102220.50
2022-12-27T06:36:11.079Z,102223.94
2022-12-27T06:38:38.336Z,102219.81
2022-12-27T06:41:07.096Z,102206.78
2022-12-27T06:43:33.959Z,102213.09
2022-12-27T06:46:02.907Z,102213.09
2022-12-27T06:48:29.618Z,102209.19
2022-12-27T06:50:56.338Z,102217.81
2022-12-27T06:53:22.869Z,102212.84
2022-12-27T06:55:49.333Z,102198.38
2022-12-27T06:58:16.009Z,102199.41
2022-12-27T07:00:43.180Z,102207.22
2022-12-27T07:03:09.706Z,102196.06
2022-12-27T07:05:36.863Z,102213.31
2022-12-27T07:08:03.966Z,102222.69
2022-12-27T07:10:30.946Z,102222.69
2022-12-27T07:12:57.781Z,102224.59
2022-12-27T07:15:24.483Z,102213.66
2022-12-27T07:17:50.964Z,102199.16
2022-12-27T07:20:17.414Z,102203.56
2022-12-27T07:22:43.930Z,102201.88
2022-12-27T07:25:10.387Z,102200.19
2022-12-27T07:27:37.225Z,102195.00
2022-12-27T07:30:06.301Z,102191.47
2022-12-27T07:32:32.849Z,102190.50
2022-12-27T07:34:59.291Z,102194.19
2022-12-27T07:37:25.749Z,102197.72
2022-12-27T07:39:52.173Z,102203.06
2022-12-27T07:42:18.624Z,102194.66
2022-12-27T07:44:48.141Z,102199.88
2022-12-27T07:47:14.614Z,102207.63
2022-12-27T07:49:41.066Z,102195.78
2022-12-27T07:52:07.527Z,102200.09
2022-12-27T07:54:33.958Z,102190.66
2022-12-27T07:57:00.407Z,102178.00
2022-12-27T07:59:26.869Z,102184.09
2022-12-27T08:01:53.405Z,102178.97
2022-12-27T08:04:19.934Z,102187.63
2022-12-27T08:06:46.974Z,102199.53
2022-12-27T08:09:16.902Z,102202.97
2022-12-27T08:11:43.409Z,102202.19
2022-12-27T08:14:09.829Z,102194.56
2022-12-27T08:16:36.347Z,102203.22
2022-12-27T08:19:08.209Z,102202.41
2022-12-27T08:21:35.070Z,102190.47
2022-12-27T08:24:01.501Z,102193.09
2022-12-27T08:26:27.967Z,102192.38
2022-12-27T08:28:54.509Z,102185.66
2022-12-27T08:31:21.048Z,102185.81
2022-12-27T08:33:47.516Z,102178.28
2022-12-27T08:36:45.316Z,102181.06
2022-12-27T08:39:01.658Z,102186.41
2022-12-27T08:41:28.101Z,102186.41
2022-12-27T08:43:54.528Z,102189.44
2022-12-27T08:46:21.386Z,102187.97
2022-12-27T08:48:48.943Z,102185.72
2022-12-27T08:51:23.429Z,102184.38
2022-12-27T08:53:58.085Z,102184.84
2022-12-27T08:56:24.686Z,102181.03
2022-12-27T08:58:51.388Z,102178.81
2022-12-27T09:01:18.046Z,102175.72
2022-12-27T09:03:44.579Z,102183.06
2022-12-27T09:06:14.006Z,102176.56
2022-12-27T09:08:40.512Z,102180.38
2022-12-27T09:11:12.673Z,102183.91
2022-12-27T09:13:40.236Z,102191.28
2022-12-27T09:16:13.044Z,102179.31
2022-12-27T09:18:41.016Z,102185.81
2022-12-27T09:21:10.519Z,102176.63
2022-12-27T09:23:38.190Z,102178.69
2022-12-27T09:26:29.250Z,102176.41
2022-12-27T09:28:57.098Z,102172.41
2022-12-27T09:31:24.836Z,102169.31
2022-12-27T09:33:52.545Z,102172.94
2022-12-27T09:36:22.135Z,102171.34
2022-12-27T09:38:50.911Z,102177.75
2022-12-27T09:41:40.840Z,102187.53
2022-12-27T09:44:23.289Z,102170.63
2022-12-27T09:47:00.553Z,102174.38
2022-12-27T09:49:36.204Z,102172.06
2022-12-27T09:52:10.328Z,102167.94
2022-12-27T09:54:50.325Z,102161.28
2022-12-27T09:57:22.757Z,102165.25
2022-12-27T09:59:56.795Z,102158.41
2022-12-27T10:02:25.874Z,102163.09
2022-12-27T10:05:19.723Z,102165.84
2022-12-27T10:07:49.472Z,102166.91
2022-12-27T10:11:04.187Z,102161.19
2022-12-27T10:13:39.591Z,102150.25
2022-12-27T10:16:43.350Z,102147.91
2022-12-27T10:19:26.557Z,102149.84
2022-12-27T10:22:20.246Z,102135.47
2022-12-27T10:24:56.995Z,102133.88
2022-12-27T10:27:28.818Z,102132.47
2022-12-27T10:29:57.723Z,102133.69
2022-12-27T10:32:24.405Z,102125.34
2022-12-27T10:34:56.129Z,102107.44
2022-12-27T10:37:23.024Z,102106.03
2022-12-27T10:39:49.529Z,102110.53
2022-12-27T10:42:35.747Z,102102.91
2022-12-27T10:45:41.179Z,102103.13
2022-12-27T10:48:13.168Z,102095.50
2022-12-27T10:50:49.129Z,102100.00
2022-12-27T10:53:37.738Z,102099.44
2022-12-27T10:56:27.457Z,102091.09
2022-12-27T10:59:04.860Z,102084.31
2022-12-27T11:01:32.094Z,102087.16
2022-12-27T11:04:21.907Z,102080.53
2022-12-27T11:06:51.707Z,102066.97
2022-12-27T11:09:38.401Z,102063.78
2022-12-27T11:12:12.328Z,102064.06
2022-12-27T11:14:38.859Z,102058.34
2022-12-27T11:17:14.014Z,102048.34
2022-12-27T11:19:47.311Z,102040.81
2022-12-27T11:22:14.100Z,102044.63
2022-12-27T11:24:46.510Z,102035.31
2022-12-27T11:27:25.435Z,102026.78
2022-12-27T11:29:55.700Z,102021.81
2022-12-27T11:32:23.340Z,102025.56
2022-12-27T11:34:53.236Z,102014.53
2022-12-27T11:37:24.158Z,102003.63
2022-12-27T11:40:10.313Z,101998.81
2022-12-27T11:42:47.350Z,101987.84
2022-12-27T11:45:43.210Z,101999.44
2022-12-27T11:48:51.149Z,101985.84
2022-12-27T11:51:36.380Z,101970.53
2022-12-27T11:54:33.532Z,101980.13
2022-12-27T11:57:07.148Z,101963.84
2022-12-27T11:59:39.009Z,101961.66
2022-12-27T12:02:17.522Z,101959.22
2022-12-27T12:04:51.910Z,101952.59
2022-12-27T12:07:36.715Z,101952.03
2022-12-27T12:10:16.558Z,101942.91
2022-12-27T12:13:02.236Z,101942.31
2022-12-27T12:15:31.660Z,101933.13
2022-12-27T12:18:13.083Z,101922.16
2022-12-27T12:20:47.048Z,101912.97
2022-12-27T12:23:16.856Z,101902.84
2022-12-27T12:26:00.150Z,101896.09
2022-12-27T12:29:08.502Z,101886.84
2022-12-27T12:32:03.043Z,101898.31
2022-12-27T12:34:37.801Z,101876.78
2022-12-27T12:37:13.405Z,101876.94
2022-12-27T12:39:58.424Z,101870.03
2022-12-27T12:42:49.439Z,101864.91
2022-12-27T12:45:31.115Z,101848.47
2022-12-27T12:48:04.519Z,101832.13
2022-12-27T12:51:12.624Z,101827.78
2022-12-27T12:53:51.098Z,101818.31
2022-12-27T12:57:08.864Z,101820.03
2022-12-27T13:00:03.186Z,101810.50
2022-12-27T13:02:48.516Z,101812.28
2022-12-27T13:05:22.558Z,101811.34
2022-12-27T13:08:15.467Z,101807.00
2022-12-27T13:11:19.941Z,101806.94
2022-12-27T13:13:54.047Z,101792.22
2022-12-27T13:16:20.485Z,101783.53
2022-12-27T13:18:53.084Z,101777.41
2022-12-27T13:21:53.714Z,101771.31
2022-12-27T13:24:53.223Z,101766.91
2022-12-27T13:27:32.255Z,101753.88
2022-12-27T13:30:25.921Z,101753.03
2022-12-27T13:33:26.760Z,101752.94
2022-12-27T13:35:58.922Z,101743.44
2022-12-27T13:38:44.212Z,101744.28
2022-12-27T13:41:17.973Z,101726.06
2022-12-27T13:44:11.649Z,101723.50
2022-12-27T13:47:03.193Z,101724.34
2022-12-27T13:49:51.984Z,101725.97
2022-12-27T13:53:00.115Z,101725.13
2022-12-27T13:56:27.190Z,101719.06
2022-12-27T13:58:59.272Z,101717.34
2022-12-27T14:01:28.947Z,101721.66
2022-12-27T14:04:33.779Z,101719.91
2022-12-27T14:07:12.795Z,101695.66
2022-12-27T14:10:08.721Z,101707.81
2022-12-27T14:12:42.074Z,101690.50
2022-12-27T14:15:14.715Z,101692.16
2022-12-27T14:17:52.096Z,101700.88
2022-12-27T14:20:58.305Z,101687.06
2022-12-27T14:23:37.427Z,101684.47
2022-12-27T14:26:22.242Z,101686.19
2022-12-27T14:29:13.197Z,101679.31
2022-12-27T14:32:17.127Z,101681.88
2022-12-27T14:35:07.075Z,101673.25
2022-12-27T14:38:06.951Z,101671.53
2022-12-27T14:40:48.819Z,101656.78
2022-12-27T14:44:02.140Z,101648.25
2022-12-27T14:46:28.623Z,101646.53
2022-12-27T14:49:26.050Z,101637.00
2022-12-27T14:52:20.126Z,101632.75
2022-12-27T14:55:23.986Z,101626.72
2022-12-27T14:58:09.156Z,101625.03
2022-12-27T15:01:04.879Z,101632.75
2022-12-27T15:03:57.101Z,101631.06
2022-12-27T15:06:34.277Z,101612.00
2022-12-27T15:09:26.021Z,101619.00
2022-12-27T15:12:14.035Z,101608.63
2022-12-27T15:14:59.957Z,101595.63
2022-12-27T15:17:35.234Z,101609.53
2022-12-27T15:20:31.977Z,101599.19
2022-12-27T15:23:06.930Z,101599.22
2022-12-27T15:25:58.437Z,101606.09
2022-12-27T15:28:43.425Z,101597.50
2022-12-27T15:31:21.356Z,101580.22
2022-12-27T15:34:25.262Z,101581.91
2022-12-27T15:36:51.846Z,101580.22
2022-12-27T15:39:33.399Z,101579.34
2022-12-27T15:42:08.310Z,101567.22
2022-12-27T15:44:56.141Z,101575.81
2022-12-27T15:47:43.829Z,101562.81
2022-12-27T15:50:22.470Z,101560.19
2022-12-27T15:52:51.655Z,101556.66
2022-12-27T15:56:00.077Z,101564.41
2022-12-27T15:58:27.375Z,101564.31
2022-12-27T16:01:19.205Z,101560.81
2022-12-27T16:03:53.573Z,101552.16
2022-12-27T16:06:35.463Z,101552.97
2022-12-27T16:09:13.866Z,101551.19
2022-12-27T16:11:58.584Z,101550.28
2022-12-27T16:14:42.947Z,101547.66
2022-12-27T16:17:09.381Z,101539.91
2022-12-27T16:19:44.935Z,101529.50
2022-12-27T16:22:35.090Z,101533.78
2022-12-27T16:25:30.665Z,101518.25
2022-12-27T16:28:05.991Z,101524.28
2022-12-27T16:30:44.220Z,101521.69
2022-12-27T16:33:25.966Z,101513.94
2022-12-27T16:36:21.556Z,101516.53
2022-12-27T16:38:50.965Z,101507.03
2022-12-27T16:41:26.162Z,101507.88
2022-12-27T16:44:01.624Z,101511.28
2022-12-27T16:46:47.612Z,101504.38
2022-12-27T16:49:47.613Z,101494.03
2022-12-27T16:52:14.019Z,101487.97
2022-12-27T16:54:48.344Z,101491.44
2022-12-27T16:57:44.862Z,101483.66
2022-12-27T17:00:11.390Z,101476.78
2022-12-27T17:02:43.618Z,101471.56
2022-12-27T17:05:34.706Z,101463.75
2022-12-27T17:08:01.111Z,101455.22
2022-12-27T17:10:27.849Z,101462.06
2022-12-27T17:13:01.693Z,101446.47
2022-12-27T17:15:28.996Z,101453.41
2022-12-27T17:18:08.854Z,101447.31
2022-12-27T17:20:37.893Z,101436.94
2022-12-27T17:23:04.571Z,101432.66
2022-12-27T17:25:52.004Z,101435.22
2022-12-27T17:28:30.559Z,101423.91
2022-12-27T17:31:16.670Z,101424.78
2022-12-27T17:34:09.382Z,101425.59
2022-12-27T17:37:01.783Z,101423.84
2022-12-27T17:39:39.234Z,101410.06
2022-12-27T17:42:36.300Z,101415.16
2022-12-27T17:45:08.805Z,101402.25
2022-12-27T17:47:35.219Z,101401.38
2022-12-27T17:50:04.230Z,101414.28
2022-12-27T17:52:30.692Z,101406.50
2022-12-27T17:55:15.415Z,101408.22
2022-12-27T17:57:41.998Z,101396.16
2022-12-27T18:00:23.611Z,101390.09
2022-12-27T18:02:53.330Z,101386.66
2022-12-27T18:05:27.519Z,101372.81
2022-12-27T18:08:06.229Z,101382.34
2022-12-27T18:10:34.000Z,101398.69
2022-12-27T18:13:05.976Z,101382.31
2022-12-27T18:15:36.066Z,101367.59
2022-12-27T18:18:08.184Z,101370.09
2022-12-27T18:20:36.815Z,101374.47
2022-12-27T18:23:03.188Z,101371.00
2022-12-27T18:25:39.894Z,101358.91
2022-12-27T18:28:33.394Z,101364.03
2022-12-27T18:31:12.359Z,101351.97
2022-12-27T18:33:42.828Z,101352.78
2022-12-27T18:36:15.235Z,101369.06
2022-12-27T18:38:45.063Z,101340.59
2022-12-27T18:41:21.336Z,101346.66
2022-12-27T18:43:50.476Z,101340.53
2022-12-27T18:46:30.424Z,101340.53
2022-12-27T18:48:57.658Z,101328.47
2022-12-27T18:51:36.929Z,101326.75
2022-12-27T18:54:32.301Z,101324.09
2022-12-27T18:57:01.608Z,101302.50
2022-12-27T18:59:33.367Z,101306.00
2022-12-27T19:02:03.111Z,101293.03
2022-12-27T19:04:31.279Z,101291.31
2022-12-27T19:07:00.521Z,101288.69
2022-12-27T19:09:30.685Z,101282.66
2022-12-27T19:12:00.721Z,101283.53
2022-12-27T19:14:36.155Z,101286.09
2022-12-27T19:17:10.418Z,101283.53
2022-12-27T19:19:37.549Z,101250.78
2022-12-27T19:22:41.410Z,101260.28
2022-12-27T19:25:22.975Z,101250.78
2022-12-27T19:28:15.578Z,101236.16
2022-12-27T19:31:05.346Z,101220.56
2022-12-27T19:33:34.333Z,101224.09
2022-12-27T19:36:03.239Z,101233.50
2022-12-27T19:38:33.296Z,101215.50
2022-12-27T19:41:03.795Z,101205.09
2022-12-27T19:43:37.492Z,101193.97
2022-12-27T19:46:04.094Z,101190.53
2022-12-27T19:48:30.583Z,101195.69
2022-12-27T19:50:58.381Z,101187.09
2022-12-27T19:53:34.531Z,101174.16
2022-12-27T19:56:01.071Z,101173.38
2022-12-27T19:58:28.405Z,101165.63
2022-12-27T20:00:55.224Z,101157.91
2022-12-27T20:03:21.934Z,101158.78
2022-12-27T20:06:11.150Z,101146.75
2022-12-27T20:08:53.778Z,101150.19
2022-12-27T20:11:22.917Z,101145.91
2022-12-27T20:13:49.793Z,101130.44
2022-12-27T20:16:18.587Z,101118.34
2022-12-27T20:18:45.489Z,101112.44
2022-12-27T20:21:17.455Z,101103.72
2022-12-27T20:23:44.587Z,101102.94
2022-12-27T20:26:12.659Z,101099.50
2022-12-27T20:28:39.277Z,101095.19
2022-12-27T20:31:10.900Z,101095.19
2022-12-27T20:33:37.251Z,101098.63
2022-12-27T20:36:04.793Z,101097.78
2022-12-27T20:38:32.131Z,101098.66
2022-12-27T20:41:09.361Z,101089.19
2022-12-27T20:43:36.242Z,101087.50
2022-12-27T20:46:11.783Z,101089.25
2022-12-27T20:48:42.986Z,101065.16
2022-12-27T20:51:15.322Z,101062.53
2022-12-27T20:53:42.083Z,101070.34
2022-12-27T20:56:08.531Z,101061.78
2022-12-27T20:58:35.628Z,101052.31
2022-12-27T21:01:13.239Z,101054.06
2022-12-27T21:03:40.108Z,101063.56
2022-12-27T21:06:09.136Z,101049.75
2022-12-27T21:08:40.453Z,101050.69
2022-12-27T21:11:23.913Z,101042.06
2022-12-27T21:13:50.697Z,101040.38
2022-12-27T21:16:19.552Z,101030.06
2022-12-27T21:18:46.841Z,101027.47
2022-12-27T21:21:18.971Z,101021.44
2022-12-27T21:23:46.138Z,101014.56
2022-12-27T21:26:15.168Z,101027.47
2022-12-27T21:28:42.315Z,101023.22
2022-12-27T21:31:09.557Z,101014.59
2022-12-27T21:33:36.148Z,101012.88
2022-12-27T21:36:08.349Z,101006.84
2022-12-27T21:38:35.154Z,100991.38
2022-12-27T21:41:07.937Z,100981.91
2022-12-27T21:43:34.459Z,100967.25
2022-12-27T21:46:06.843Z,100971.56
2022-12-27T21:48:33.732Z,100964.66
2022-12-27T21:51:09.673Z,100954.31
2022-12-27T21:53:36.175Z,100936.25
2022-12-27T21:56:04.784Z,100931.06
2022-12-27T21:58:32.560Z,100934.50
2022-12-27T22:01:08.566Z,100923.31
2022-12-27T22:03:37.876Z,100914.69
2022-12-27T22:06:18.569Z,100903.50
2022-12-27T22:08:48.072Z,100925.94
2022-12-27T22:11:15.702Z,100917.31
2022-12-27T22:13:42.936Z,100908.72
2022-12-27T22:16:15.286Z,100916.47
2022-12-27T22:18:42.286Z,100906.13
2022-12-27T22:21:11.079Z,100896.63
2022-12-27T22:23:40.466Z,100903.53
2022-12-27T22:26:12.721Z,100912.16
2022-12-27T22:28:39.715Z,100920.78
2022-12-27T22:31:07.992Z,100909.56
2022-12-27T22:33:35.369Z,100904.41
2022-12-27T22:36:07.162Z,100889.75
2022-12-27T22:38:33.915Z,100892.34
2022-12-27T22:41:08.092Z,100898.41
2022-12-27T22:43:35.037Z,100886.34
2022-12-27T22:46:06.088Z,100874.28
2022-12-27T22:48:32.619Z,100887.22
2022-12-27T22:50:59.072Z,100882.91
2022-12-27T22:53:25.541Z,100882.94
2022-12-27T22:55:51.989Z,100895.88
2022-12-27T22:58:18.425Z,100885.56
2022-12-27T23:00:44.861Z,100882.09
2022-12-27T23:03:11.350Z,100867.44
2022-12-27T23:05:37.767Z,100869.19
2022-12-27T23:08:07.031Z,100857.13
2022-12-27T23:10:34.097Z,100860.59
2022-12-27T23:13:00.980Z,100854.53
2022-12-27T23:15:27.435Z,100850.22
2022-12-27T23:17:53.850Z,100855.41
2022-12-27T23:20:20.275Z,100850.22
2022-12-27T23:22:46.743Z,100856.28
2022-12-27T23:25:13.255Z,100856.28
2022-12-27T23:27:39.757Z,100853.69
2022-12-27T23:30:06.771Z,100858.91
2022-12-27T23:32:33.305Z,100858.91
2022-12-27T23:34:59.752Z,100852.84
2022-12-27T23:37:26.262Z,100857.19
2022-12-27T23:39:52.707Z,100846.81
2022-12-27T23:42:19.178Z,100852.00
2022-12-27T23:44:45.635Z,100862.38
2022-12-27T23:47:12.161Z,100857.19
2022-12-27T23:49:38.613Z,100839.94
2022-12-27T23:52:05.129Z,100835.63
2022-12-27T23:54:31.648Z,100849.41
2022-12-27T23:56:58.116Z,100846.84
2022-12-27T23:59:44.591Z,100852.91
